Airfield :
LOGIN :

Register | Disclaimer

   EN    FR    IT 

 










Legend :    VFR   Marginal VFR   IFR   Intensive IFR   Very Intensive IFR
Visi :
Ceiling :
>= 8 km
>= 3000ft
5 to 8 km
1000 to 3000 ft
1500m to 5 km
500 to 1000 ft
800 to 1500m
200 to 500 ft
< 800m
< 200 ft
Symbols :   Thunderstorms  Fog  Heavy snow  Heavy precipitations  Wind > 20 kt
SIGMETs :     Misc.  Thunderstorms  Icing  Turbulence  Mountain Waves  Volcanic Ashes






- Airport Elevation : 32 ft
- IATA code : LKZ


EGUL - RAF Lakenheath

CURRENT METAR :
  • 201756Z AUTO 00000KT 9999 BKN049 09/09 A2989 RMK AO2 DZE22 SLP125 P//// 6//// T00940085 10120 20094 52015 $

EXPIRED METARs :
  • 201722Z AUTO 32003KT 9999 SCT018 SCT023 BKN043 BKN050 10/09 A2989 RMK AO2 DZE22 SLP125 $
  • 201711Z AUTO 00000KT 9999 -DZ SCT020 BKN043 10/09 A2988 RMK AO2 SLP122 $
  • 201647Z AUTO 34003KT 9999 -DZ BKN022 BKN042 10/09 A2988 RMK AO2 DZB32E33RAB33E43DZB43 CIG 022V042 SLP122 $
  • 201632Z AUTO 35004KT 9999 -DZ FEW018 BKN042 10/09 A2987 RMK AO2 DZB32 SLP118 $
  • 201556Z AUTO 35005KT 9999 FEW013 BKN030 11/09 A2987 RMK AO2 RAE04DZB04E06DZB30E31RAB31E42DZB42E46 SLP118 P//// T01050088 $
  • 201546Z AUTO 35007KT 9999 SCT012 BKN025 BKN037 BKN047 11/09 A2986 RMK AO2 RAE04DZB04E06DZB30E31RAB31E42DZB42E46 SLP115 $
  • 201545Z AUTO 34006KT 9999 -DZ SCT012 BKN025 BKN037 BKN047 11/09 A2986 RMK AO2 RAE04DZB04E06DZB30E31RAB31E42DZB42 CIG 025V037 BKN025 V SCT SLP115 $

TAF AMD TAF EGUL
Valid from the 20 at 13:00 until the 21 at 16:00 UTC


201307Z 2013/2116 34012KT 9999 BKN030 QNH2982INS
TEMPO 2015/2019 34012KT 9999 BKN025
BECMG 2019/2020 35006KT 9999 BKN010 QNH2989INS
BECMG 2103/2104 36010G18KT 9999 OVC010 QNH2998INS
BECMG 2106/2107 36012G20KT 8000 -RA BR OVC010 QNH2998INS TX11/2014Z TN04/2104Z LAST NO AMDS AFT 2015 NEXT 2105



MET'MAP, your aeronautical weather chart ! - Copyright ORBIFLY December 2007 - Disclaimer

ORBIFLY MET'MAP TEAM :

Programming & Development : Alexandra Zaïnal
Concept & Development : Baudouin d'Aumeries
Co-Development & Prog : Marc-Olivier Méhu
Technical & hardware support : Manuel Goepfert

Contact : metmap@orbifly.com




SOURCES & CREDITS :

   NOAA